sensor_id;sensor_type;location;lat;lon;timestamp;temperature;humidity
5556;DHT22;2801;50.972;7.856;2023-03-31T00:00:51;8.30;99.90
5556;DHT22;2801;50.972;7.856;2023-03-31T00:03:20;8.30;99.90
5556;DHT22;2801;50.972;7.856;2023-03-31T00:05:55;8.30;99.90
5556;DHT22;2801;50.972;7.856;2023-03-31T00:08:28;8.50;99.90
5556;DHT22;2801;50.972;7.856;2023-03-31T00:11:03;8.50;99.90
5556;DHT22;2801;50.972;7.856;2023-03-31T00:13:33;8.60;99.90
5556;DHT22;2801;50.972;7.856;2023-03-31T00:16:03;8.70;99.90
5556;DHT22;2801;50.972;7.856;2023-03-31T00:18:33;8.70;99.90
5556;DHT22;2801;50.972;7.856;2023-03-31T00:21:11;8.80;99.90
5556;DHT22;2801;50.972;7.856;2023-03-31T00:23:40;8.80;99.90
5556;DHT22;2801;50.972;7.856;2023-03-31T00:26:07;8.80;99.90
5556;DHT22;2801;50.972;7.856;2023-03-31T00:28:34;8.80;99.90
5556;DHT22;2801;50.972;7.856;2023-03-31T00:31:02;8.80;99.90
5556;DHT22;2801;50.972;7.856;2023-03-31T00:33:29;8.80;99.90
5556;DHT22;2801;50.972;7.856;2023-03-31T00:35:57;8.80;99.90
5556;DHT22;2801;50.972;7.856;2023-03-31T00:38:28;8.80;99.90
5556;DHT22;2801;50.972;7.856;2023-03-31T00:40:55;8.80;99.90
5556;DHT22;2801;50.972;7.856;2023-03-31T00:43:32;8.80;99.90
5556;DHT22;2801;50.972;7.856;2023-03-31T00:46:14;8.70;99.90
5556;DHT22;2801;50.972;7.856;2023-03-31T00:48:51;8.60;99.90
5556;DHT22;2801;50.972;7.856;2023-03-31T00:51:28;8.60;99.90
5556;DHT22;2801;50.972;7.856;2023-03-31T00:54:03;8.60;99.90
5556;DHT22;2801;50.972;7.856;2023-03-31T00:56:37;8.50;99.90
5556;DHT22;2801;50.972;7.856;2023-03-31T00:59:10;8.50;99.90
5556;DHT22;2801;50.972;7.856;2023-03-31T01:01:40;8.50;99.90
5556;DHT22;2801;50.972;7.856;2023-03-31T01:04:13;8.50;99.90
5556;DHT22;2801;50.972;7.856;2023-03-31T01:06:58;8.50;99.90
5556;DHT22;2801;50.972;7.856;2023-03-31T01:09:35;8.60;99.90
5556;DHT22;2801;50.972;7.856;2023-03-31T01:12:06;8.50;99.90
5556;DHT22;2801;50.972;7.856;2023-03-31T01:14:36;8.40;99.90
5556;DHT22;2801;50.972;7.856;2023-03-31T01:17:03;8.50;99.90
5556;DHT22;2801;50.972;7.856;2023-03-31T01:42:45;8.60;99.90
5556;DHT22;2801;50.972;7.856;2023-03-31T01:45:43;8.70;99.90
5556;DHT22;2801;50.972;7.856;2023-03-31T01:54:25;8.70;99.90
5556;DHT22;2801;50.972;7.856;2023-03-31T02:00:08;8.60;99.90
5556;DHT22;2801;50.972;7.856;2023-03-31T02:02:54;8.60;99.90
5556;DHT22;2801;50.972;7.856;2023-03-31T02:05:27;8.60;99.90
5556;DHT22;2801;50.972;7.856;2023-03-31T02:10:34;8.60;99.90
5556;DHT22;2801;50.972;7.856;2023-03-31T02:13:02;8.60;99.90
5556;DHT22;2801;50.972;7.856;2023-03-31T02:15:35;8.60;99.90
5556;DHT22;2801;50.972;7.856;2023-03-31T02:18:06;8.70;99.90
5556;DHT22;2801;50.972;7.856;2023-03-31T02:20:39;8.60;99.90
5556;DHT22;2801;50.972;7.856;2023-03-31T02:23:13;8.60;99.90
5556;DHT22;2801;50.972;7.856;2023-03-31T02:26:06;8.70;99.90
5556;DHT22;2801;50.972;7.856;2023-03-31T02:28:37;8.70;99.90
5556;DHT22;2801;50.972;7.856;2023-03-31T02:31:12;8.70;99.90
5556;DHT22;2801;50.972;7.856;2023-03-31T02:33:44;8.70;99.90
5556;DHT22;2801;50.972;7.856;2023-03-31T02:36:11;8.70;99.90
5556;DHT22;2801;50.972;7.856;2023-03-31T02:39:05;8.70;99.90
5556;DHT22;2801;50.972;7.856;2023-03-31T02:41:39;8.70;99.90
5556;DHT22;2801;50.972;7.856;2023-03-31T02:44:07;8.70;99.90
5556;DHT22;2801;50.972;7.856;2023-03-31T02:46:35;8.70;99.90
5556;DHT22;2801;50.972;7.856;2023-03-31T02:49:05;8.80;99.90
5556;DHT22;2801;50.972;7.856;2023-03-31T02:55:10;8.80;99.90
5556;DHT22;2801;50.972;7.856;2023-03-31T03:01:25;8.80;99.90
5556;DHT22;2801;50.972;7.856;2023-03-31T03:03:42;8.70;99.90
5556;DHT22;2801;50.972;7.856;2023-03-31T03:09:34;8.70;99.90
5556;DHT22;2801;50.972;7.856;2023-03-31T03:12:11;8.70;99.90
5556;DHT22;2801;50.972;7.856;2023-03-31T03:15:08;8.70;99.90
5556;DHT22;2801;50.972;7.856;2023-03-31T03:17:41;8.70;99.90
5556;DHT22;2801;50.972;7.856;2023-03-31T03:20:12;8.60;99.90
5556;DHT22;2801;50.972;7.856;2023-03-31T03:22:41;8.60;99.90
5556;DHT22;2801;50.972;7.856;2023-03-31T03:25:11;8.60;99.90
5556;DHT22;2801;50.972;7.856;2023-03-31T03:27:39;8.60;99.90
5556;DHT22;2801;50.972;7.856;2023-03-31T03:30:09;8.60;99.90
5556;DHT22;2801;50.972;7.856;2023-03-31T03:32:38;8.60;99.90
5556;DHT22;2801;50.972;7.856;2023-03-31T03:35:05;8.60;99.90
5556;DHT22;2801;50.972;7.856;2023-03-31T03:37:33;8.60;99.90
5556;DHT22;2801;50.972;7.856;2023-03-31T03:40:01;8.50;99.90
5556;DHT22;2801;50.972;7.856;2023-03-31T03:42:28;8.50;99.90
5556;DHT22;2801;50.972;7.856;2023-03-31T03:44:55;8.50;99.90
5556;DHT22;2801;50.972;7.856;2023-03-31T03:47:22;8.40;99.90
5556;DHT22;2801;50.972;7.856;2023-03-31T03:49:49;8.40;99.90
5556;DHT22;2801;50.972;7.856;2023-03-31T03:52:16;8.50;99.90
5556;DHT22;2801;50.972;7.856;2023-03-31T03:54:43;8.40;99.90
5556;DHT22;2801;50.972;7.856;2023-03-31T03:57:10;8.40;99.90
5556;DHT22;2801;50.972;7.856;2023-03-31T03:59:37;8.40;99.90
5556;DHT22;2801;50.972;7.856;2023-03-31T04:02:04;8.40;99.90
5556;DHT22;2801;50.972;7.856;2023-03-31T04:04:31;8.40;99.90
5556;DHT22;2801;50.972;7.856;2023-03-31T04:06:58;8.40;99.90
5556;DHT22;2801;50.972;7.856;2023-03-31T04:09:26;8.40;99.90
5556;DHT22;2801;50.972;7.856;2023-03-31T04:11:53;8.40;99.90
5556;DHT22;2801;50.972;7.856;2023-03-31T04:14:20;8.40;99.90
5556;DHT22;2801;50.972;7.856;2023-03-31T04:16:47;8.40;99.90
5556;DHT22;2801;50.972;7.856;2023-03-31T04:19:14;8.30;99.90
5556;DHT22;2801;50.972;7.856;2023-03-31T04:21:44;8.40;99.90
5556;DHT22;2801;50.972;7.856;2023-03-31T04:24:12;8.40;99.90
5556;DHT22;2801;50.972;7.856;2023-03-31T04:26:41;8.40;99.90
5556;DHT22;2801;50.972;7.856;2023-03-31T04:29:13;8.30;99.90
5556;DHT22;2801;50.972;7.856;2023-03-31T04:31:46;8.30;99.90
5556;DHT22;2801;50.972;7.856;2023-03-31T04:34:14;8.40;99.90
5556;DHT22;2801;50.972;7.856;2023-03-31T04:36:45;8.30;99.90
5556;DHT22;2801;50.972;7.856;2023-03-31T04:39:18;8.40;99.90
5556;DHT22;2801;50.972;7.856;2023-03-31T04:41:52;8.40;99.90
5556;DHT22;2801;50.972;7.856;2023-03-31T04:44:20;8.40;99.90
5556;DHT22;2801;50.972;7.856;2023-03-31T04:46:46;8.40;99.90
5556;DHT22;2801;50.972;7.856;2023-03-31T04:49:14;8.40;99.90
5556;DHT22;2801;50.972;7.856;2023-03-31T04:51:41;8.40;99.90
5556;DHT22;2801;50.972;7.856;2023-03-31T04:54:08;8.40;99.90
5556;DHT22;2801;50.972;7.856;2023-03-31T04:56:35;8.40;99.90
5556;DHT22;2801;50.972;7.856;2023-03-31T04:59:02;8.40;99.90
5556;DHT22;2801;50.972;7.856;2023-03-31T05:01:30;8.40;99.90
5556;DHT22;2801;50.972;7.856;2023-03-31T05:04:03;8.40;99.90
5556;DHT22;2801;50.972;7.856;2023-03-31T05:06:31;8.40;99.90
5556;DHT22;2801;50.972;7.856;2023-03-31T05:08:58;8.40;99.90
5556;DHT22;2801;50.972;7.856;2023-03-31T05:11:25;8.40;99.90
5556;DHT22;2801;50.972;7.856;2023-03-31T05:13:53;8.40;99.90
5556;DHT22;2801;50.972;7.856;2023-03-31T05:16:20;8.40;99.90
5556;DHT22;2801;50.972;7.856;2023-03-31T05:18:47;8.40;99.90
5556;DHT22;2801;50.972;7.856;2023-03-31T05:21:17;8.30;99.90
5556;DHT22;2801;50.972;7.856;2023-03-31T05:23:45;8.30;99.90
5556;DHT22;2801;50.972;7.856;2023-03-31T05:26:13;8.30;99.90
5556;DHT22;2801;50.972;7.856;2023-03-31T05:28:41;8.20;99.90
5556;DHT22;2801;50.972;7.856;2023-03-31T05:31:09;8.20;99.90
5556;DHT22;2801;50.972;7.856;2023-03-31T05:33:39;8.20;99.90
5556;DHT22;2801;50.972;7.856;2023-03-31T05:36:09;8.20;99.90
5556;DHT22;2801;50.972;7.856;2023-03-31T05:38:39;8.10;99.90
5556;DHT22;2801;50.972;7.856;2023-03-31T05:41:07;8.10;99.90
5556;DHT22;2801;50.972;7.856;2023-03-31T05:43:39;8.10;99.90
5556;DHT22;2801;50.972;7.856;2023-03-31T05:46:06;8.20;99.90
5556;DHT22;2801;50.972;7.856;2023-03-31T05:48:34;8.10;99.90
5556;DHT22;2801;50.972;7.856;2023-03-31T05:51:03;8.10;99.90
5556;DHT22;2801;50.972;7.856;2023-03-31T05:53:31;8.10;99.90
5556;DHT22;2801;50.972;7.856;2023-03-31T05:56:04;8.10;99.90
5556;DHT22;2801;50.972;7.856;2023-03-31T05:58:34;8.20;99.90
5556;DHT22;2801;50.972;7.856;2023-03-31T06:01:11;8.20;99.90
5556;DHT22;2801;50.972;7.856;2023-03-31T06:03:44;8.20;99.90
5556;DHT22;2801;50.972;7.856;2023-03-31T06:06:12;8.20;99.90
5556;DHT22;2801;50.972;7.856;2023-03-31T06:08:41;8.20;99.90
5556;DHT22;2801;50.972;7.856;2023-03-31T06:11:12;8.10;99.90
5556;DHT22;2801;50.972;7.856;2023-03-31T06:13:41;8.10;99.90
5556;DHT22;2801;50.972;7.856;2023-03-31T06:16:10;8.10;99.90
5556;DHT22;2801;50.972;7.856;2023-03-31T06:18:39;8.10;99.90
5556;DHT22;2801;50.972;7.856;2023-03-31T06:21:07;8.10;99.90
5556;DHT22;2801;50.972;7.856;2023-03-31T06:23:38;8.10;99.90
5556;DHT22;2801;50.972;7.856;2023-03-31T06:26:06;8.10;99.90
5556;DHT22;2801;50.972;7.856;2023-03-31T06:28:34;8.10;99.90
5556;DHT22;2801;50.972;7.856;2023-03-31T06:31:14;8.10;99.90
5556;DHT22;2801;50.972;7.856;2023-03-31T06:33:43;8.00;99.90
5556;DHT22;2801;50.972;7.856;2023-03-31T06:36:12;8.00;99.90
5556;DHT22;2801;50.972;7.856;2023-03-31T06:38:42;8.00;99.90
5556;DHT22;2801;50.972;7.856;2023-03-31T06:41:11;7.90;99.90
5556;DHT22;2801;50.972;7.856;2023-03-31T06:43:40;7.90;99.90
5556;DHT22;2801;50.972;7.856;2023-03-31T06:46:09;8.00;99.90
5556;DHT22;2801;50.972;7.856;2023-03-31T06:48:37;7.90;99.90
5556;DHT22;2801;50.972;7.856;2023-03-31T06:51:05;7.90;99.90
5556;DHT22;2801;50.972;7.856;2023-03-31T06:53:33;7.90;99.90
5556;DHT22;2801;50.972;7.856;2023-03-31T06:56:02;8.00;99.90
5556;DHT22;2801;50.972;7.856;2023-03-31T06:58:30;8.00;99.90
5556;DHT22;2801;50.972;7.856;2023-03-31T07:00:58;8.00;99.90
5556;DHT22;2801;50.972;7.856;2023-03-31T07:03:27;8.00;99.90
5556;DHT22;2801;50.972;7.856;2023-03-31T07:05:55;8.00;99.90
5556;DHT22;2801;50.972;7.856;2023-03-31T07:08:23;8.00;99.90
5556;DHT22;2801;50.972;7.856;2023-03-31T07:10:57;8.00;99.90
5556;DHT22;2801;50.972;7.856;2023-03-31T07:13:27;7.90;99.90
5556;DHT22;2801;50.972;7.856;2023-03-31T07:15:55;8.00;99.90
5556;DHT22;2801;50.972;7.856;2023-03-31T07:18:22;8.00;99.90
5556;DHT22;2801;50.972;7.856;2023-03-31T07:21:01;7.90;99.90
5556;DHT22;2801;50.972;7.856;2023-03-31T07:23:33;8.00;99.90
5556;DHT22;2801;50.972;7.856;2023-03-31T07:26:01;7.90;99.90
5556;DHT22;2801;50.972;7.856;2023-03-31T07:28:29;7.90;99.90
5556;DHT22;2801;50.972;7.856;2023-03-31T07:30:56;7.90;99.90
5556;DHT22;2801;50.972;7.856;2023-03-31T07:33:23;7.90;99.90
5556;DHT22;2801;50.972;7.856;2023-03-31T07:35:51;7.90;99.90
5556;DHT22;2801;50.972;7.856;2023-03-31T07:38:35;8.00;99.90
5556;DHT22;2801;50.972;7.856;2023-03-31T07:41:03;8.10;99.90
5556;DHT22;2801;50.972;7.856;2023-03-31T07:43:35;8.10;99.90
5556;DHT22;2801;50.972;7.856;2023-03-31T07:46:02;8.20;99.90
5556;DHT22;2801;50.972;7.856;2023-03-31T07:48:31;8.20;99.90
5556;DHT22;2801;50.972;7.856;2023-03-31T07:50:59;8.20;99.90
5556;DHT22;2801;50.972;7.856;2023-03-31T07:53:26;8.30;99.90
5556;DHT22;2801;50.972;7.856;2023-03-31T07:55:53;8.40;99.90
5556;DHT22;2801;50.972;7.856;2023-03-31T07:58:20;8.60;99.90
5556;DHT22;2801;50.972;7.856;2023-03-31T08:00:47;8.70;99.90
5556;DHT22;2801;50.972;7.856;2023-03-31T08:03:14;8.90;99.90
5556;DHT22;2801;50.972;7.856;2023-03-31T08:05:41;8.80;99.90
5556;DHT22;2801;50.972;7.856;2023-03-31T08:08:08;8.90;99.90
5556;DHT22;2801;50.972;7.856;2023-03-31T08:10:36;9.00;99.90
5556;DHT22;2801;50.972;7.856;2023-03-31T08:13:03;9.10;99.90
5556;DHT22;2801;50.972;7.856;2023-03-31T08:15:30;9.30;99.90
5556;DHT22;2801;50.972;7.856;2023-03-31T08:17:57;9.30;99.90
5556;DHT22;2801;50.972;7.856;2023-03-31T08:20:24;9.30;99.90
5556;DHT22;2801;50.972;7.856;2023-03-31T08:22:51;9.40;99.90
5556;DHT22;2801;50.972;7.856;2023-03-31T08:25:18;9.50;99.90
5556;DHT22;2801;50.972;7.856;2023-03-31T08:27:46;9.80;99.90
5556;DHT22;2801;50.972;7.856;2023-03-31T08:30:18;10.00;99.90
5556;DHT22;2801;50.972;7.856;2023-03-31T08:32:46;10.20;99.90
5556;DHT22;2801;50.972;7.856;2023-03-31T08:35:13;10.20;99.90
5556;DHT22;2801;50.972;7.856;2023-03-31T08:37:40;10.20;99.90
5556;DHT22;2801;50.972;7.856;2023-03-31T08:40:15;10.10;99.90
5556;DHT22;2801;50.972;7.856;2023-03-31T08:42:49;10.10;99.90
5556;DHT22;2801;50.972;7.856;2023-03-31T08:45:52;10.10;99.90
5556;DHT22;2801;50.972;7.856;2023-03-31T08:48:24;10.20;99.90
5556;DHT22;2801;50.972;7.856;2023-03-31T08:50:59;10.30;99.90
5556;DHT22;2801;50.972;7.856;2023-03-31T08:53:35;10.40;99.90
5556;DHT22;2801;50.972;7.856;2023-03-31T08:56:14;10.40;99.90
5556;DHT22;2801;50.972;7.856;2023-03-31T08:58:48;10.40;99.90
5556;DHT22;2801;50.972;7.856;2023-03-31T09:09:58;11.40;99.90
5556;DHT22;2801;50.972;7.856;2023-03-31T09:15:09;12.90;99.90
5556;DHT22;2801;50.972;7.856;2023-03-31T09:17:46;13.40;99.90
5556;DHT22;2801;50.972;7.856;2023-03-31T09:20:28;13.30;99.90
5556;DHT22;2801;50.972;7.856;2023-03-31T09:25:45;12.50;99.90
5556;DHT22;2801;50.972;7.856;2023-03-31T09:28:28;12.10;99.90
5556;DHT22;2801;50.972;7.856;2023-03-31T09:31:07;11.80;99.90
5556;DHT22;2801;50.972;7.856;2023-03-31T09:33:44;11.60;99.90
5556;DHT22;2801;50.972;7.856;2023-03-31T09:36:17;11.40;99.90
5556;DHT22;2801;50.972;7.856;2023-03-31T09:38:45;11.30;99.90
5556;DHT22;2801;50.972;7.856;2023-03-31T09:41:14;11.20;99.90
5556;DHT22;2801;50.972;7.856;2023-03-31T09:43:42;11.00;99.90
5556;DHT22;2801;50.972;7.856;2023-03-31T09:46:27;11.10;99.90
5556;DHT22;2801;50.972;7.856;2023-03-31T09:49:09;11.60;99.90
5556;DHT22;2801;50.972;7.856;2023-03-31T09:51:43;12.30;99.90
5556;DHT22;2801;50.972;7.856;2023-03-31T09:56:51;13.30;99.90
5556;DHT22;2801;50.972;7.856;2023-03-31T09:59:30;13.50;99.90
5556;DHT22;2801;50.972;7.856;2023-03-31T10:02:02;13.60;99.90
5556;DHT22;2801;50.972;7.856;2023-03-31T10:04:45;13.50;99.90
5556;DHT22;2801;50.972;7.856;2023-03-31T10:07:12;13.40;99.90
5556;DHT22;2801;50.972;7.856;2023-03-31T10:09:47;13.60;99.90
5556;DHT22;2801;50.972;7.856;2023-03-31T10:12:20;13.70;99.90
5556;DHT22;2801;50.972;7.856;2023-03-31T10:14:52;13.40;99.90
5556;DHT22;2801;50.972;7.856;2023-03-31T10:17:27;13.20;99.90
5556;DHT22;2801;50.972;7.856;2023-03-31T10:20:03;13.00;99.90
5556;DHT22;2801;50.972;7.856;2023-03-31T10:22:44;12.90;99.90
5556;DHT22;2801;50.972;7.856;2023-03-31T10:25:23;12.70;99.90
5556;DHT22;2801;50.972;7.856;2023-03-31T10:27:55;12.50;99.90
5556;DHT22;2801;50.972;7.856;2023-03-31T10:30:25;12.30;99.90
5556;DHT22;2801;50.972;7.856;2023-03-31T10:33:05;12.10;99.90
5556;DHT22;2801;50.972;7.856;2023-03-31T10:35:49;11.80;99.90
5556;DHT22;2801;50.972;7.856;2023-03-31T10:38:43;11.60;99.90
5556;DHT22;2801;50.972;7.856;2023-03-31T10:41:21;11.60;99.90
5556;DHT22;2801;50.972;7.856;2023-03-31T10:43:55;11.90;99.90
5556;DHT22;2801;50.972;7.856;2023-03-31T10:46:48;12.30;99.90
5556;DHT22;2801;50.972;7.856;2023-03-31T10:51:58;12.70;99.90
5556;DHT22;2801;50.972;7.856;2023-03-31T10:54:26;12.60;99.90
5556;DHT22;2801;50.972;7.856;2023-03-31T10:56:59;12.40;99.90
5556;DHT22;2801;50.972;7.856;2023-03-31T11:14:18;14.30;99.90
5556;DHT22;2801;50.972;7.856;2023-03-31T11:17:44;13.80;99.90
5556;DHT22;2801;50.972;7.856;2023-03-31T11:23:35;12.80;99.90
5556;DHT22;2801;50.972;7.856;2023-03-31T11:32:15;14.00;99.90
5556;DHT22;2801;50.972;7.856;2023-03-31T11:34:56;14.10;99.90
5556;DHT22;2801;50.972;7.856;2023-03-31T11:40:21;13.90;99.90
5556;DHT22;2801;50.972;7.856;2023-03-31T11:46:09;12.60;99.90
5556;DHT22;2801;50.972;7.856;2023-03-31T11:48:52;11.90;99.90
5556;DHT22;2801;50.972;7.856;2023-03-31T11:52:05;11.40;99.90
5556;DHT22;2801;50.972;7.856;2023-03-31T11:54:41;11.10;99.90
5556;DHT22;2801;50.972;7.856;2023-03-31T11:57:32;11.10;99.90
5556;DHT22;2801;50.972;7.856;2023-03-31T12:00:06;11.30;99.90
5556;DHT22;2801;50.972;7.856;2023-03-31T12:05:26;11.90;99.90
5556;DHT22;2801;50.972;7.856;2023-03-31T12:08:28;12.10;99.90
5556;DHT22;2801;50.972;7.856;2023-03-31T12:13:58;12.30;99.90
5556;DHT22;2801;50.972;7.856;2023-03-31T12:16:54;12.20;99.90
5556;DHT22;2801;50.972;7.856;2023-03-31T12:19:39;12.30;99.90
5556;DHT22;2801;50.972;7.856;2023-03-31T12:22:23;12.40;99.90
5556;DHT22;2801;50.972;7.856;2023-03-31T12:24:53;12.50;99.90
5556;DHT22;2801;50.972;7.856;2023-03-31T12:27:25;12.70;99.90
5556;DHT22;2801;50.972;7.856;2023-03-31T12:32:55;13.10;99.90
5556;DHT22;2801;50.972;7.856;2023-03-31T12:51:00;13.70;99.90
5556;DHT22;2801;50.972;7.856;2023-03-31T12:59:35;12.20;99.90
5556;DHT22;2801;50.972;7.856;2023-03-31T13:02:20;11.80;99.90
5556;DHT22;2801;50.972;7.856;2023-03-31T13:04:49;11.50;99.90
5556;DHT22;2801;50.972;7.856;2023-03-31T13:07:38;11.20;99.90
5556;DHT22;2801;50.972;7.856;2023-03-31T13:12:40;10.80;99.90
5556;DHT22;2801;50.972;7.856;2023-03-31T13:15:12;10.80;99.90
5556;DHT22;2801;50.972;7.856;2023-03-31T13:17:56;10.90;99.90
5556;DHT22;2801;50.972;7.856;2023-03-31T13:20:38;11.10;99.90
5556;DHT22;2801;50.972;7.856;2023-03-31T13:23:20;11.30;99.90
5556;DHT22;2801;50.972;7.856;2023-03-31T13:25:53;11.50;99.90
5556;DHT22;2801;50.972;7.856;2023-03-31T13:30:53;11.50;99.90
5556;DHT22;2801;50.972;7.856;2023-03-31T13:36:02;11.80;99.90
5556;DHT22;2801;50.972;7.856;2023-03-31T13:45:14;12.30;99.90
5556;DHT22;2801;50.972;7.856;2023-03-31T13:54:52;12.30;99.90
5556;DHT22;2801;50.972;7.856;2023-03-31T14:07:16;11.80;99.90
5556;DHT22;2801;50.972;7.856;2023-03-31T14:09:46;11.50;99.90
5556;DHT22;2801;50.972;7.856;2023-03-31T14:14:58;11.00;99.90
5556;DHT22;2801;50.972;7.856;2023-03-31T14:17:37;10.80;99.90
5556;DHT22;2801;50.972;7.856;2023-03-31T14:23:48;10.30;99.90
5556;DHT22;2801;50.972;7.856;2023-03-31T14:35:51;10.60;99.90
5556;DHT22;2801;50.972;7.856;2023-03-31T14:38:20;10.80;99.90
5556;DHT22;2801;50.972;7.856;2023-03-31T14:40:50;10.90;99.90
5556;DHT22;2801;50.972;7.856;2023-03-31T14:43:25;11.00;99.90
5556;DHT22;2801;50.972;7.856;2023-03-31T14:46:04;11.10;99.90
5556;DHT22;2801;50.972;7.856;2023-03-31T14:48:43;11.00;99.90
5556;DHT22;2801;50.972;7.856;2023-03-31T14:51:14;11.00;99.90
5556;DHT22;2801;50.972;7.856;2023-03-31T14:53:43;11.00;99.90
5556;DHT22;2801;50.972;7.856;2023-03-31T14:56:14;11.10;99.90
5556;DHT22;2801;50.972;7.856;2023-03-31T14:58:48;11.20;99.90
5556;DHT22;2801;50.972;7.856;2023-03-31T15:01:22;11.20;99.90
5556;DHT22;2801;50.972;7.856;2023-03-31T15:03:54;11.20;99.90
5556;DHT22;2801;50.972;7.856;2023-03-31T15:06:24;11.30;99.90
5556;DHT22;2801;50.972;7.856;2023-03-31T15:08:56;11.30;99.90
5556;DHT22;2801;50.972;7.856;2023-03-31T15:11:24;11.30;99.90
5556;DHT22;2801;50.972;7.856;2023-03-31T15:13:54;11.30;99.90
5556;DHT22;2801;50.972;7.856;2023-03-31T15:16:44;11.20;99.90
5556;DHT22;2801;50.972;7.856;2023-03-31T15:21:56;11.20;99.90
5556;DHT22;2801;50.972;7.856;2023-03-31T15:24:44;11.20;99.90
5556;DHT22;2801;50.972;7.856;2023-03-31T15:27:20;11.00;99.90
5556;DHT22;2801;50.972;7.856;2023-03-31T15:30:11;10.90;99.90
5556;DHT22;2801;50.972;7.856;2023-03-31T15:32:42;10.80;99.90
5556;DHT22;2801;50.972;7.856;2023-03-31T15:35:21;10.80;99.90
5556;DHT22;2801;50.972;7.856;2023-03-31T15:37:54;10.70;99.90
5556;DHT22;2801;50.972;7.856;2023-03-31T15:40:28;10.70;99.90
5556;DHT22;2801;50.972;7.856;2023-03-31T15:43:04;10.60;99.90
5556;DHT22;2801;50.972;7.856;2023-03-31T15:45:52;10.60;99.90
5556;DHT22;2801;50.972;7.856;2023-03-31T15:53:46;10.40;99.90
5556;DHT22;2801;50.972;7.856;2023-03-31T15:56:34;10.30;99.90
5556;DHT22;2801;50.972;7.856;2023-03-31T15:59:21;10.20;99.90
5556;DHT22;2801;50.972;7.856;2023-03-31T16:02:42;10.10;99.90
5556;DHT22;2801;50.972;7.856;2023-03-31T16:05:23;10.00;99.90
5556;DHT22;2801;50.972;7.856;2023-03-31T16:08:19;10.00;99.90
5556;DHT22;2801;50.972;7.856;2023-03-31T16:10:48;9.90;99.90
5556;DHT22;2801;50.972;7.856;2023-03-31T16:13:28;9.90;99.90
5556;DHT22;2801;50.972;7.856;2023-03-31T16:15:58;9.90;99.90
5556;DHT22;2801;50.972;7.856;2023-03-31T16:18:28;9.90;99.90
5556;DHT22;2801;50.972;7.856;2023-03-31T16:21:01;10.10;99.90
5556;DHT22;2801;50.972;7.856;2023-03-31T16:23:33;10.00;99.90
5556;DHT22;2801;50.972;7.856;2023-03-31T16:26:04;10.00;99.90
5556;DHT22;2801;50.972;7.856;2023-03-31T16:28:36;10.00;99.90
5556;DHT22;2801;50.972;7.856;2023-03-31T16:31:04;10.10;99.90
5556;DHT22;2801;50.972;7.856;2023-03-31T16:34:07;10.00;99.90
5556;DHT22;2801;50.972;7.856;2023-03-31T16:36:36;9.90;99.90
5556;DHT22;2801;50.972;7.856;2023-03-31T16:39:04;9.90;99.90
5556;DHT22;2801;50.972;7.856;2023-03-31T16:41:33;9.80;99.90
5556;DHT22;2801;50.972;7.856;2023-03-31T16:44:02;9.80;99.90
5556;DHT22;2801;50.972;7.856;2023-03-31T16:46:30;9.70;99.90
5556;DHT22;2801;50.972;7.856;2023-03-31T16:48:57;9.60;99.90
5556;DHT22;2801;50.972;7.856;2023-03-31T16:51:24;9.50;99.90
5556;DHT22;2801;50.972;7.856;2023-03-31T16:53:51;9.50;99.90
5556;DHT22;2801;50.972;7.856;2023-03-31T16:56:18;9.40;99.90
5556;DHT22;2801;50.972;7.856;2023-03-31T16:58:45;9.40;99.90
5556;DHT22;2801;50.972;7.856;2023-03-31T17:01:12;9.30;99.90
5556;DHT22;2801;50.972;7.856;2023-03-31T17:03:39;9.30;99.90
5556;DHT22;2801;50.972;7.856;2023-03-31T17:06:10;9.20;99.90
5556;DHT22;2801;50.972;7.856;2023-03-31T17:08:38;9.20;99.90
5556;DHT22;2801;50.972;7.856;2023-03-31T17:11:08;9.20;99.90
5556;DHT22;2801;50.972;7.856;2023-03-31T17:13:38;9.10;99.90
5556;DHT22;2801;50.972;7.856;2023-03-31T17:16:08;9.10;99.90
5556;DHT22;2801;50.972;7.856;2023-03-31T17:18:52;9.10;99.90
5556;DHT22;2801;50.972;7.856;2023-03-31T17:21:19;9.10;99.90
5556;DHT22;2801;50.972;7.856;2023-03-31T17:23:46;9.10;99.90
5556;DHT22;2801;50.972;7.856;2023-03-31T17:26:14;9.10;99.90
5556;DHT22;2801;50.972;7.856;2023-03-31T17:28:42;9.10;99.90
5556;DHT22;2801;50.972;7.856;2023-03-31T17:31:14;9.10;99.90
5556;DHT22;2801;50.972;7.856;2023-03-31T17:33:42;9.00;99.90
5556;DHT22;2801;50.972;7.856;2023-03-31T17:36:10;9.00;99.90
5556;DHT22;2801;50.972;7.856;2023-03-31T17:38:38;9.10;99.90
5556;DHT22;2801;50.972;7.856;2023-03-31T17:41:08;9.10;99.90
5556;DHT22;2801;50.972;7.856;2023-03-31T17:43:38;9.10;99.90
5556;DHT22;2801;50.972;7.856;2023-03-31T17:46:10;9.00;99.90
5556;DHT22;2801;50.972;7.856;2023-03-31T17:48:39;9.00;99.90
5556;DHT22;2801;50.972;7.856;2023-03-31T17:51:15;9.00;99.90
5556;DHT22;2801;50.972;7.856;2023-03-31T17:53:45;9.00;99.90
5556;DHT22;2801;50.972;7.856;2023-03-31T17:56:14;9.00;99.90
5556;DHT22;2801;50.972;7.856;2023-03-31T17:58:42;9.00;99.90
5556;DHT22;2801;50.972;7.856;2023-03-31T18:01:11;8.90;99.90
5556;DHT22;2801;50.972;7.856;2023-03-31T18:03:39;8.90;99.90
5556;DHT22;2801;50.972;7.856;2023-03-31T18:06:11;8.90;99.90
5556;DHT22;2801;50.972;7.856;2023-03-31T18:08:40;8.80;99.90
5556;DHT22;2801;50.972;7.856;2023-03-31T18:11:08;8.80;99.90
5556;DHT22;2801;50.972;7.856;2023-03-31T18:13:36;8.80;99.90
5556;DHT22;2801;50.972;7.856;2023-03-31T18:16:05;8.80;99.90
5556;DHT22;2801;50.972;7.856;2023-03-31T18:18:39;8.80;99.90
5556;DHT22;2801;50.972;7.856;2023-03-31T18:21:11;8.80;99.90
5556;DHT22;2801;50.972;7.856;2023-03-31T18:23:39;8.80;99.90
5556;DHT22;2801;50.972;7.856;2023-03-31T18:26:11;8.80;99.90
5556;DHT22;2801;50.972;7.856;2023-03-31T18:28:39;8.80;99.90
5556;DHT22;2801;50.972;7.856;2023-03-31T18:31:07;8.70;99.90
5556;DHT22;2801;50.972;7.856;2023-03-31T18:33:35;8.80;99.90
5556;DHT22;2801;50.972;7.856;2023-03-31T18:36:02;8.70;99.90
5556;DHT22;2801;50.972;7.856;2023-03-31T18:38:30;8.70;99.90
5556;DHT22;2801;50.972;7.856;2023-03-31T18:40:57;8.70;99.90
5556;DHT22;2801;50.972;7.856;2023-03-31T18:43:24;8.70;99.90
5556;DHT22;2801;50.972;7.856;2023-03-31T18:45:53;8.70;99.90
5556;DHT22;2801;50.972;7.856;2023-03-31T18:48:22;8.70;99.90
5556;DHT22;2801;50.972;7.856;2023-03-31T18:50:51;8.60;99.90
5556;DHT22;2801;50.972;7.856;2023-03-31T18:53:20;8.60;99.90
5556;DHT22;2801;50.972;7.856;2023-03-31T18:55:52;8.60;99.90
5556;DHT22;2801;50.972;7.856;2023-03-31T18:58:27;8.60;99.90
5556;DHT22;2801;50.972;7.856;2023-03-31T19:00:56;8.70;99.90
5556;DHT22;2801;50.972;7.856;2023-03-31T19:03:24;8.60;99.90
5556;DHT22;2801;50.972;7.856;2023-03-31T19:06:05;8.60;99.90
5556;DHT22;2801;50.972;7.856;2023-03-31T19:08:36;8.60;99.90
5556;DHT22;2801;50.972;7.856;2023-03-31T19:11:12;8.60;99.90
5556;DHT22;2801;50.972;7.856;2023-03-31T19:13:41;8.50;99.90
5556;DHT22;2801;50.972;7.856;2023-03-31T19:16:10;8.60;99.90
5556;DHT22;2801;50.972;7.856;2023-03-31T19:18:38;8.50;99.90
5556;DHT22;2801;50.972;7.856;2023-03-31T19:21:06;8.50;99.90
5556;DHT22;2801;50.972;7.856;2023-03-31T19:23:33;8.40;99.90
5556;DHT22;2801;50.972;7.856;2023-03-31T19:26:00;8.40;99.90
5556;DHT22;2801;50.972;7.856;2023-03-31T19:28:29;8.40;99.90
5556;DHT22;2801;50.972;7.856;2023-03-31T19:30:58;8.40;99.90
5556;DHT22;2801;50.972;7.856;2023-03-31T19:33:28;8.30;99.90
5556;DHT22;2801;50.972;7.856;2023-03-31T19:35:55;8.30;99.90
5556;DHT22;2801;50.972;7.856;2023-03-31T19:38:22;8.20;99.90
5556;DHT22;2801;50.972;7.856;2023-03-31T19:40:51;8.20;99.90
5556;DHT22;2801;50.972;7.856;2023-03-31T19:43:20;8.20;99.90
5556;DHT22;2801;50.972;7.856;2023-03-31T19:45:50;8.20;99.90